Time;durP1;ratioP1;P1;durP2;ratioP2;P2;SDS_P1;SDS_P2;PMS_P1;PMS_P2;Temp;Humidity;BMP_temperature;BMP_pressure;BME280_temperature;BME280_humidity;BME280_pressure;Samples;Min_cycle;Max_cycle;Signal;HPM_P1;HPM_P2
2023/10/23 00:02:19;;;;;;;;;;;6.70;98.60;;;;;;5052528;28;19939;-71
2023/10/23 00:04:44;;;;;;;;;;;6.70;99.00;;;;;;5053896;28;19924;-73
2023/10/23 00:07:10;;;;;;;;;;;6.60;98.50;;;;;;5048435;28;19925;-73
2023/10/23 00:09:36;;;;;;;;;;;6.50;98.60;;;;;;5055206;28;19912;-73
2023/10/23 00:12:02;;;;;;;;;;;6.50;98.60;;;;;;5049185;28;19936;-74
2023/10/23 00:14:27;;;;;;;;;;;6.50;98.60;;;;;;5051804;28;19912;-73
2023/10/23 00:16:53;;;;;;;;;;;6.30;98.50;;;;;;5054499;28;19916;-72
2023/10/23 00:19:19;;;;;;;;;;;6.30;98.90;;;;;;5051797;28;19916;-72
2023/10/23 00:21:44;;;;;;;;;;;6.30;98.70;;;;;;5053018;28;19923;-73
2023/10/23 00:24:10;;;;;;;;;;;6.30;98.80;;;;;;5051376;28;20011;-71
2023/10/23 00:26:36;;;;;;;;;;;6.30;98.80;;;;;;5054457;28;19917;-72
2023/10/23 00:29:01;;;;;;;;;;;6.40;98.90;;;;;;5053889;28;19952;-74
2023/10/23 00:31:27;;;;;;;;;;;6.40;98.90;;;;;;5047621;28;19913;-72
2023/10/23 00:33:53;;;;;;;;;;;6.30;98.60;;;;;;5052600;28;19940;-73
2023/10/23 00:36:19;;;;;;;;;;;6.30;98.60;;;;;;5053401;28;19912;-72
2023/10/23 00:38:44;;;;;;;;;;;6.20;98.80;;;;;;5057463;28;19938;-72
2023/10/23 00:41:10;;;;;;;;;;;6.20;98.90;;;;;;5049886;28;19921;-73
2023/10/23 00:43:35;;;;;;;;;;;6.30;99.10;;;;;;5044956;28;19913;-73
2023/10/23 00:46:04;;;;;;;;;;;6.30;99.00;;;;;;5052705;28;19974;-72
2023/10/23 00:48:29;;;;;;;;;;;6.30;99.00;;;;;;5052789;28;19955;-73
2023/10/23 00:50:59;;;;;;;;;;;6.20;98.80;;;;;;5053507;28;19960;-72
2023/10/23 00:53:26;;;;;;;;;;;6.20;99.00;;;;;;5048148;28;20280;-72
2023/10/23 00:55:53;;;;;;;;;;;6.10;99.00;;;;;;5054077;28;19958;-72
2023/10/23 00:58:19;;;;;;;;;;;5.80;99.10;;;;;;5047290;28;19959;-73
2023/10/23 01:00:46;;;;;;;;;;;5.90;99.30;;;;;;5049250;28;19909;-72
2023/10/23 01:03:12;;;;;;;;;;;6.00;99.30;;;;;;5049608;28;19930;-72
2023/10/23 01:05:38;;;;;;;;;;;6.00;99.30;;;;;;5049572;28;19920;-72
2023/10/23 01:08:04;;;;;;;;;;;6.00;99.30;;;;;;5048986;28;19948;-73
2023/10/23 01:10:29;;;;;;;;;;;6.00;99.10;;;;;;5049624;28;19916;-72
2023/10/23 01:12:56;;;;;;;;;;;6.10;98.90;;;;;;5052063;28;19916;-71
2023/10/23 01:15:21;;;;;;;;;;;6.00;98.90;;;;;;5056555;28;19908;-72
2023/10/23 01:17:47;;;;;;;;;;;6.00;99.10;;;;;;5051235;28;20345;-71
2023/10/23 01:20:14;;;;;;;;;;;5.90;99.00;;;;;;5053184;28;19995;-72
2023/10/23 01:22:39;;;;;;;;;;;6.00;99.20;;;;;;5049343;28;19939;-71
2023/10/23 01:25:15;;;;;;;;;;;6.10;99.00;;;;;;5046937;28;19917;-72
2023/10/23 01:27:40;;;;;;;;;;;6.00;98.90;;;;;;5049117;28;19920;-72
2023/10/23 01:30:08;;;;;;;;;;;5.90;98.90;;;;;;5044639;28;19916;-74
2023/10/23 01:32:34;;;;;;;;;;;5.90;99.10;;;;;;5050888;28;19972;-72
2023/10/23 01:34:59;;;;;;;;;;;6.00;99.30;;;;;;5049870;28;20007;-73
2023/10/23 01:37:25;;;;;;;;;;;5.90;99.20;;;;;;5057307;28;20408;-71
2023/10/23 01:39:50;;;;;;;;;;;5.90;99.10;;;;;;5051721;28;20606;-74
2023/10/23 01:42:16;;;;;;;;;;;5.80;99.10;;;;;;5053745;28;19917;-73
2023/10/23 01:44:41;;;;;;;;;;;5.70;99.00;;;;;;5042076;28;19916;-72
2023/10/23 01:47:07;;;;;;;;;;;5.50;99.00;;;;;;5048384;28;19913;-73
2023/10/23 01:49:32;;;;;;;;;;;5.50;99.30;;;;;;5055704;28;20287;-72
2023/10/23 01:51:58;;;;;;;;;;;5.50;99.50;;;;;;5053323;28;19980;-71
2023/10/23 01:54:23;;;;;;;;;;;5.70;99.60;;;;;;5052106;28;19957;-74
2023/10/23 01:56:49;;;;;;;;;;;5.80;99.70;;;;;;5053437;28;20007;-71
2023/10/23 01:59:14;;;;;;;;;;;5.90;99.80;;;;;;5051808;28;19917;-73
2023/10/23 02:01:40;;;;;;;;;;;6.00;99.80;;;;;;5052768;28;20371;-72
2023/10/23 02:04:06;;;;;;;;;;;6.00;99.60;;;;;;5056109;28;19959;-72
2023/10/23 02:06:32;;;;;;;;;;;6.10;99.50;;;;;;5052779;28;20027;-72
2023/10/23 02:08:58;;;;;;;;;;;6.10;99.40;;;;;;5049364;28;19971;-72
2023/10/23 02:11:23;;;;;;;;;;;6.10;99.20;;;;;;5052511;28;19908;-72
2023/10/23 02:13:49;;;;;;;;;;;6.10;99.30;;;;;;5051232;28;20324;-73
2023/10/23 02:16:14;;;;;;;;;;;6.20;99.20;;;;;;5054203;28;20690;-72
2023/10/23 02:18:40;;;;;;;;;;;6.10;99.10;;;;;;5052545;28;19916;-72
2023/10/23 02:21:05;;;;;;;;;;;6.10;99.10;;;;;;5052405;28;20030;-72
2023/10/23 02:23:33;;;;;;;;;;;6.10;99.20;;;;;;5053346;28;20298;-72
2023/10/23 02:25:59;;;;;;;;;;;6.10;99.10;;;;;;5054693;28;19921;-72
2023/10/23 02:28:25;;;;;;;;;;;6.20;99.40;;;;;;5053018;28;20668;-72
2023/10/23 02:30:51;;;;;;;;;;;6.10;99.50;;;;;;5055166;28;20092;-72
2023/10/23 02:33:16;;;;;;;;;;;6.20;99.40;;;;;;5053482;28;20363;-72
2023/10/23 02:35:42;;;;;;;;;;;6.10;99.40;;;;;;5054115;28;19922;-73
2023/10/23 02:38:08;;;;;;;;;;;6.10;99.40;;;;;;5056095;28;19919;-72
2023/10/23 02:40:33;;;;;;;;;;;6.20;99.70;;;;;;5048351;28;20416;-73
2023/10/23 02:42:59;;;;;;;;;;;6.10;99.40;;;;;;5052326;28;19917;-72
2023/10/23 02:45:24;;;;;;;;;;;6.10;99.30;;;;;;5048154;28;19966;-71
2023/10/23 02:47:50;;;;;;;;;;;6.30;99.40;;;;;;5058711;28;19989;-73
2023/10/23 02:50:15;;;;;;;;;;;6.20;99.20;;;;;;5055085;28;19916;-71
2023/10/23 02:52:41;;;;;;;;;;;6.30;99.40;;;;;;5053103;28;19946;-72
2023/10/23 02:55:07;;;;;;;;;;;6.20;99.40;;;;;;5055267;28;19913;-73
2023/10/23 02:57:32;;;;;;;;;;;6.20;99.40;;;;;;5050972;28;19926;-74
2023/10/23 02:59:58;;;;;;;;;;;6.20;99.50;;;;;;5058309;28;19916;-75
2023/10/23 03:02:23;;;;;;;;;;;6.10;99.40;;;;;;5049003;28;20357;-72
2023/10/23 03:04:49;;;;;;;;;;;6.10;99.80;;;;;;5051804;28;19912;-72
2023/10/23 03:07:14;;;;;;;;;;;6.00;99.40;;;;;;5054405;28;19920;-71
2023/10/23 03:09:40;;;;;;;;;;;6.10;99.60;;;;;;5050571;28;19920;-72
2023/10/23 03:12:06;;;;;;;;;;;6.00;99.80;;;;;;5052085;28;20295;-72
2023/10/23 03:14:32;;;;;;;;;;;6.10;99.90;;;;;;5051377;28;19913;-71
2023/10/23 03:16:57;;;;;;;;;;;6.10;99.90;;;;;;5049350;28;19909;-71
2023/10/23 03:19:25;;;;;;;;;;;6.10;99.90;;;;;;5045833;28;19939;-72
2023/10/23 03:21:51;;;;;;;;;;;6.10;99.80;;;;;;5045467;28;20422;-74
2023/10/23 03:24:18;;;;;;;;;;;6.10;99.70;;;;;;5052340;28;19919;-72
2023/10/23 03:26:43;;;;;;;;;;;6.20;99.90;;;;;;5052643;28;19961;-72
2023/10/23 03:29:09;;;;;;;;;;;6.00;99.80;;;;;;5049919;28;19913;-74
2023/10/23 03:31:35;;;;;;;;;;;6.10;99.90;;;;;;5081820;28;19978;-72
2023/10/23 03:34:00;;;;;;;;;;;6.10;99.90;;;;;;5053631;28;20303;-73
2023/10/23 03:36:26;;;;;;;;;;;6.10;99.90;;;;;;5051306;28;19912;-72
2023/10/23 03:38:51;;;;;;;;;;;6.10;99.90;;;;;;5052274;28;20007;-72
2023/10/23 03:41:17;;;;;;;;;;;6.20;99.90;;;;;;5053158;28;19959;-71
2023/10/23 03:43:42;;;;;;;;;;;6.00;99.90;;;;;;5053060;28;20035;-72
2023/10/23 03:46:08;;;;;;;;;;;5.90;99.90;;;;;;5056288;28;20378;-71
2023/10/23 03:48:35;;;;;;;;;;;5.90;99.90;;;;;;5056244;28;20402;-72
2023/10/23 03:51:02;;;;;;;;;;;5.80;99.90;;;;;;5050843;28;20193;-73
2023/10/23 03:53:28;;;;;;;;;;;5.80;99.90;;;;;;5052564;28;19992;-72
2023/10/23 03:55:53;;;;;;;;;;;5.90;99.90;;;;;;5052242;28;20611;-72
2023/10/23 03:58:19;;;;;;;;;;;5.70;99.90;;;;;;5057229;28;20008;-72
2023/10/23 04:00:44;;;;;;;;;;;5.70;99.90;;;;;;5051735;28;20389;-72
2023/10/23 04:03:11;;;;;;;;;;;5.60;99.90;;;;;;5043676;28;19920;-72
2023/10/23 04:05:40;;;;;;;;;;;5.60;99.90;;;;;;5050496;28;19943;-71
2023/10/23 04:08:05;;;;;;;;;;;5.70;99.90;;;;;;5046592;28;20004;-72
2023/10/23 04:10:31;;;;;;;;;;;5.70;99.90;;;;;;5052089;28;19999;-72
2023/10/23 04:12:57;;;;;;;;;;;5.50;99.90;;;;;;5053647;28;20406;-72
2023/10/23 04:15:26;;;;;;;;;;;5.50;99.90;;;;;;5049667;28;19912;-71
2023/10/23 04:17:52;;;;;;;;;;;5.60;99.90;;;;;;5052406;28;20575;-71
2023/10/23 04:20:17;;;;;;;;;;;5.50;99.90;;;;;;5050824;28;19913;-72
2023/10/23 04:22:43;;;;;;;;;;;5.50;99.90;;;;;;5056888;28;19917;-73
2023/10/23 04:25:09;;;;;;;;;;;5.40;99.90;;;;;;5048944;28;20346;-72
2023/10/23 04:27:35;;;;;;;;;;;5.50;99.90;;;;;;5053359;28;19917;-73
2023/10/23 04:30:00;;;;;;;;;;;5.50;99.90;;;;;;5048066;28;19917;-71
2023/10/23 04:32:26;;;;;;;;;;;5.60;99.90;;;;;;5047294;28;20334;-73
2023/10/23 04:34:52;;;;;;;;;;;5.60;99.90;;;;;;5051495;28;19912;-72
2023/10/23 04:37:18;;;;;;;;;;;5.50;99.90;;;;;;5049280;28;20023;-71
2023/10/23 04:39:43;;;;;;;;;;;5.50;99.90;;;;;;5051191;28;20003;-72
2023/10/23 04:42:09;;;;;;;;;;;5.50;99.90;;;;;;5051036;28;20460;-72
2023/10/23 04:44:34;;;;;;;;;;;5.50;99.90;;;;;;5043439;28;20620;-71
2023/10/23 04:47:00;;;;;;;;;;;5.50;99.90;;;;;;5057948;28;19917;-72
2023/10/23 04:49:25;;;;;;;;;;;5.50;99.90;;;;;;5052900;28;19923;-74
2023/10/23 04:51:51;;;;;;;;;;;5.60;99.90;;;;;;5052620;28;19995;-71
2023/10/23 04:54:17;;;;;;;;;;;5.60;99.90;;;;;;5044747;28;19912;-72
2023/10/23 04:56:42;;;;;;;;;;;5.60;99.90;;;;;;5046442;28;20065;-71
2023/10/23 04:59:08;;;;;;;;;;;5.60;99.90;;;;;;5051468;28;19948;-72
2023/10/23 05:01:34;;;;;;;;;;;5.50;99.90;;;;;;5049381;28;19974;-71
2023/10/23 05:03:59;;;;;;;;;;;5.60;99.90;;;;;;5047217;28;19920;-70
2023/10/23 05:06:28;;;;;;;;;;;5.60;99.90;;;;;;5047690;28;20366;-72
2023/10/23 05:08:53;;;;;;;;;;;5.60;99.90;;;;;;5043698;28;20366;-72
2023/10/23 05:11:19;;;;;;;;;;;5.70;99.90;;;;;;5052864;28;19999;-72
2023/10/23 05:13:46;;;;;;;;;;;5.80;99.90;;;;;;5054244;28;20004;-73
2023/10/23 05:16:12;;;;;;;;;;;5.70;99.90;;;;;;5050597;28;19913;-73
2023/10/23 05:18:38;;;;;;;;;;;5.70;99.90;;;;;;5049768;28;20429;-74
2023/10/23 05:21:07;;;;;;;;;;;5.70;99.90;;;;;;5053509;28;20026;-74
2023/10/23 05:23:33;;;;;;;;;;;5.70;99.90;;;;;;5051471;28;19959;-74
2023/10/23 05:25:59;;;;;;;;;;;5.70;99.90;;;;;;5057619;28;19916;-74
2023/10/23 05:28:25;;;;;;;;;;;5.70;99.90;;;;;;5054157;28;19913;-73
2023/10/23 05:30:50;;;;;;;;;;;5.70;99.90;;;;;;5052026;28;19917;-73
2023/10/23 05:33:16;;;;;;;;;;;5.70;99.90;;;;;;5053081;28;19920;-74
2023/10/23 05:35:42;;;;;;;;;;;5.70;99.90;;;;;;5055910;28;19916;-74
2023/10/23 05:38:07;;;;;;;;;;;5.70;99.90;;;;;;5051477;28;19973;-74
2023/10/23 05:40:33;;;;;;;;;;;5.80;99.90;;;;;;5049298;28;19928;-76
2023/10/23 05:42:59;;;;;;;;;;;5.70;99.90;;;;;;5043951;28;20498;-72
2023/10/23 05:45:24;;;;;;;;;;;5.70;99.90;;;;;;5045054;28;19916;-73
2023/10/23 05:47:50;;;;;;;;;;;5.70;99.90;;;;;;5044265;28;19969;-73
2023/10/23 05:50:15;;;;;;;;;;;5.70;99.90;;;;;;5049629;28;19912;-75
2023/10/23 05:52:41;;;;;;;;;;;5.70;99.90;;;;;;5050375;28;20397;-74
2023/10/23 05:55:08;;;;;;;;;;;5.60;99.90;;;;;;5047950;28;19987;-76
2023/10/23 05:57:34;;;;;;;;;;;5.50;99.90;;;;;;5046744;28;19952;-75
2023/10/23 05:59:59;;;;;;;;;;;5.50;99.90;;;;;;5051568;28;19952;-75
2023/10/23 06:02:25;;;;;;;;;;;5.50;99.90;;;;;;5050093;28;20462;-75
2023/10/23 06:04:51;;;;;;;;;;;5.60;99.90;;;;;;5048821;28;20528;-74
2023/10/23 06:07:16;;;;;;;;;;;5.70;99.90;;;;;;5043833;28;20366;-79
2023/10/23 06:09:42;;;;;;;;;;;5.60;99.90;;;;;;5058279;28;20406;-78
2023/10/23 06:12:09;;;;;;;;;;;5.60;99.90;;;;;;5053317;28;19973;-77
2023/10/23 06:14:35;;;;;;;;;;;5.60;99.90;;;;;;5052666;28;19908;-77
2023/10/23 06:17:00;;;;;;;;;;;5.70;99.90;;;;;;5046361;28;20283;-78
2023/10/23 06:19:26;;;;;;;;;;;5.70;99.90;;;;;;5051658;28;19912;-78
2023/10/23 06:21:52;;;;;;;;;;;5.70;99.90;;;;;;5045164;28;19924;-78
2023/10/23 06:24:17;;;;;;;;;;;5.70;99.90;;;;;;5052314;28;19917;-76
2023/10/23 06:26:43;;;;;;;;;;;5.70;99.90;;;;;;5050683;28;19924;-77
2023/10/23 06:29:09;;;;;;;;;;;5.60;99.90;;;;;;5044288;28;19917;-78
2023/10/23 06:31:34;;;;;;;;;;;5.50;99.90;;;;;;5047288;28;20389;-77
2023/10/23 06:34:00;;;;;;;;;;;5.60;99.90;;;;;;5054462;28;20311;-77
2023/10/23 06:36:25;;;;;;;;;;;5.70;99.90;;;;;;5055792;28;20379;-77
2023/10/23 06:38:51;;;;;;;;;;;5.70;99.90;;;;;;5058156;28;20310;-77
2023/10/23 06:41:16;;;;;;;;;;;5.80;99.90;;;;;;5053358;28;19998;-77
2023/10/23 06:43:42;;;;;;;;;;;5.90;99.90;;;;;;5058411;28;19998;-77
2023/10/23 06:46:08;;;;;;;;;;;6.00;99.90;;;;;;5053623;28;19944;-77
2023/10/23 06:48:33;;;;;;;;;;;6.00;99.90;;;;;;5058341;28;20271;-76
2023/10/23 06:50:59;;;;;;;;;;;6.00;99.90;;;;;;5054695;28;19994;-76
2023/10/23 06:53:25;;;;;;;;;;;6.00;99.90;;;;;;5050604;28;19919;-76
2023/10/23 06:55:51;;;;;;;;;;;6.10;99.90;;;;;;5055910;28;19966;-76
2023/10/23 06:58:18;;;;;;;;;;;6.10;99.90;;;;;;5055551;28;19912;-78
2023/10/23 07:00:44;;;;;;;;;;;6.30;99.90;;;;;;5053944;28;19912;-80
2023/10/23 07:03:10;;;;;;;;;;;6.20;99.90;;;;;;5057929;28;20036;-77
2023/10/23 07:05:35;;;;;;;;;;;6.30;99.90;;;;;;5047107;28;19913;-76
2023/10/23 07:08:01;;;;;;;;;;;6.40;99.90;;;;;;5049442;28;20363;-77
2023/10/23 07:10:27;;;;;;;;;;;6.40;99.90;;;;;;5054416;28;20489;-77
2023/10/23 07:12:52;;;;;;;;;;;6.40;99.80;;;;;;5050608;28;19917;-75
2023/10/23 07:15:18;;;;;;;;;;;6.50;99.90;;;;;;5047458;28;19912;-75
2023/10/23 07:17:43;;;;;;;;;;;6.50;99.60;;;;;;5042855;28;19917;-74
2023/10/23 07:20:09;;;;;;;;;;;6.60;99.70;;;;;;5091478;28;19966;-74
2023/10/23 07:22:36;;;;;;;;;;;6.70;99.50;;;;;;5052380;28;20009;-73
2023/10/23 07:25:02;;;;;;;;;;;6.90;98.50;;;;;;5054196;28;19920;-74
2023/10/23 07:27:28;;;;;;;;;;;6.80;99.10;;;;;;5049229;28;19917;-74
2023/10/23 07:29:54;;;;;;;;;;;6.80;99.10;;;;;;5050096;28;20691;-74
2023/10/23 07:32:19;;;;;;;;;;;6.90;98.90;;;;;;5056040;28;19920;-74
2023/10/23 07:34:45;;;;;;;;;;;6.70;99.00;;;;;;5055130;28;19986;-74
2023/10/23 07:37:17;;;;;;;;;;;6.80;98.90;;;;;;5050646;28;19959;-73
2023/10/23 07:39:47;;;;;;;;;;;6.80;99.10;;;;;;5050769;28;19924;-75
2023/10/23 07:42:13;;;;;;;;;;;7.00;99.00;;;;;;5050657;28;19916;-76
2023/10/23 07:44:38;;;;;;;;;;;6.90;98.90;;;;;;5052725;28;19923;-75
2023/10/23 07:47:04;;;;;;;;;;;7.00;98.80;;;;;;5045730;28;19917;-76
2023/10/23 07:49:29;;;;;;;;;;;7.20;98.60;;;;;;5048489;28;19919;-75
2023/10/23 07:51:55;;;;;;;;;;;7.40;98.10;;;;;;5051122;28;19917;-75
2023/10/23 07:54:20;;;;;;;;;;;7.50;98.20;;;;;;5051165;28;19917;-75
2023/10/23 07:56:46;;;;;;;;;;;7.50;97.70;;;;;;5058821;28;19916;-75
2023/10/23 07:59:11;;;;;;;;;;;7.60;97.40;;;;;;5052831;28;19962;-76
2023/10/23 08:01:37;;;;;;;;;;;7.60;97.80;;;;;;5058467;28;20300;-76
2023/10/23 08:04:03;;;;;;;;;;;7.60;97.50;;;;;;5048325;28;20433;-75
2023/10/23 08:06:29;;;;;;;;;;;7.60;97.90;;;;;;5052562;28;19928;-76
2023/10/23 08:08:55;;;;;;;;;;;7.80;97.40;;;;;;5054328;28;19917;-76
2023/10/23 08:11:20;;;;;;;;;;;7.80;97.60;;;;;;5052283;28;19909;-73
2023/10/23 08:13:46;;;;;;;;;;;7.90;97.70;;;;;;5053026;28;19924;-74
2023/10/23 08:16:12;;;;;;;;;;;8.10;97.40;;;;;;5048259;28;19916;-76
2023/10/23 08:18:38;;;;;;;;;;;8.30;97.40;;;;;;5052553;28;20560;-76
2023/10/23 08:21:07;;;;;;;;;;;8.50;97.20;;;;;;5055279;28;19923;-75
2023/10/23 08:23:33;;;;;;;;;;;8.60;96.70;;;;;;5050508;28;19913;-76
2023/10/23 08:25:58;;;;;;;;;;;8.60;96.30;;;;;;5048462;28;19939;-74
2023/10/23 08:28:24;;;;;;;;;;;8.70;96.60;;;;;;5048642;28;19974;-77
2023/10/23 08:30:49;;;;;;;;;;;8.80;96.30;;;;;;5046106;28;19909;-75
2023/10/23 08:33:15;;;;;;;;;;;8.90;96.50;;;;;;5048678;28;20230;-74
2023/10/23 08:35:41;;;;;;;;;;;8.90;96.50;;;;;;5054871;28;19912;-77
2023/10/23 08:38:07;;;;;;;;;;;9.00;96.10;;;;;;5054696;28;20370;-76
2023/10/23 08:40:32;;;;;;;;;;;9.20;95.90;;;;;;5050558;28;19919;-74
2023/10/23 08:42:59;;;;;;;;;;;9.30;95.60;;;;;;5046992;28;20011;-75
2023/10/23 08:45:25;;;;;;;;;;;9.20;95.60;;;;;;5051502;28;19920;-74
2023/10/23 08:47:51;;;;;;;;;;;9.20;95.80;;;;;;5050588;28;19970;-77
2023/10/23 08:50:16;;;;;;;;;;;9.30;95.70;;;;;;5048916;28;19920;-74
2023/10/23 08:52:45;;;;;;;;;;;9.40;95.80;;;;;;5049907;28;19923;-75
2023/10/23 08:55:14;;;;;;;;;;;9.50;95.60;;;;;;5056986;28;19965;-76
2023/10/23 08:57:46;;;;;;;;;;;9.60;95.70;;;;;;5052415;28;19913;-75
2023/10/23 09:00:12;;;;;;;;;;;9.90;94.70;;;;;;5054905;28;19995;-76
2023/10/23 09:02:38;;;;;;;;;;;9.80;95.40;;;;;;5053137;28;19911;-76
2023/10/23 09:05:04;;;;;;;;;;;9.70;94.90;;;;;;5081412;28;20699;-74
2023/10/23 09:07:29;;;;;;;;;;;9.90;95.10;;;;;;5056005;28;20369;-74
2023/10/23 09:09:59;;;;;;;;;;;9.90;95.40;;;;;;5057487;28;19924;-78
2023/10/23 09:12:31;;;;;;;;;;;10.00;95.10;;;;;;5048468;28;20433;-76
2023/10/23 09:14:57;;;;;;;;;;;10.10;95.40;;;;;;5049819;28;20003;-75
2023/10/23 09:17:23;;;;;;;;;;;10.30;95.00;;;;;;5054727;28;20392;-75
2023/10/23 09:19:49;;;;;;;;;;;10.20;95.20;;;;;;5053266;28;19908;-75
2023/10/23 09:22:14;;;;;;;;;;;10.20;95.00;;;;;;5059009;28;19939;-76
2023/10/23 09:24:40;;;;;;;;;;;10.10;94.90;;;;;;5049673;28;20674;-76
2023/10/23 09:27:05;;;;;;;;;;;10.20;94.90;;;;;;5053698;28;19916;-75
2023/10/23 09:29:31;;;;;;;;;;;10.10;94.80;;;;;;5051725;28;19947;-75
2023/10/23 09:31:58;;;;;;;;;;;10.30;94.80;;;;;;5041677;28;20016;-74
2023/10/23 09:34:23;;;;;;;;;;;10.30;94.70;;;;;;5047922;28;19939;-77
2023/10/23 09:36:52;;;;;;;;;;;10.40;94.90;;;;;;5047722;28;20362;-76
2023/10/23 09:39:19;;;;;;;;;;;10.30;94.80;;;;;;5055667;28;20026;-76
2023/10/23 09:41:47;;;;;;;;;;;10.40;94.70;;;;;;5054725;28;19935;-75
2023/10/23 09:44:13;;;;;;;;;;;10.40;94.40;;;;;;5053235;28;19936;-77
2023/10/23 09:46:39;;;;;;;;;;;10.60;94.30;;;;;;5039937;28;20371;-77
2023/10/23 09:49:05;;;;;;;;;;;10.60;93.50;;;;;;5047448;28;19949;-75
2023/10/23 09:51:40;;;;;;;;;;;10.80;93.60;;;;;;5048399;28;19915;-74
2023/10/23 09:54:16;;;;;;;;;;;10.80;93.50;;;;;;5052944;28;19921;-77
2023/10/23 09:56:52;;;;;;;;;;;11.00;93.30;;;;;;5059245;28;19919;-74
2023/10/23 09:59:18;;;;;;;;;;;11.20;93.00;;;;;;5043690;28;19966;-77
2023/10/23 10:01:47;;;;;;;;;;;11.30;92.40;;;;;;5050673;28;19917;-74
2023/10/23 10:04:17;;;;;;;;;;;11.30;92.40;;;;;;5047359;28;20624;-76
2023/10/23 10:06:46;;;;;;;;;;;11.40;92.40;;;;;;5049415;28;19967;-77
2023/10/23 10:09:12;;;;;;;;;;;11.60;91.70;;;;;;5050033;28;19959;-75
2023/10/23 10:11:44;;;;;;;;;;;11.40;91.70;;;;;;5054654;28;19919;-76
2023/10/23 10:14:11;;;;;;;;;;;11.50;91.80;;;;;;5043681;28;20387;-76
2023/10/23 10:16:38;;;;;;;;;;;11.50;91.40;;;;;;5051248;28;20429;-77
2023/10/23 10:19:04;;;;;;;;;;;11.60;91.90;;;;;;5052605;28;19951;-75
2023/10/23 10:21:32;;;;;;;;;;;11.70;91.80;;;;;;5053838;28;20007;-76
2023/10/23 10:24:00;;;;;;;;;;;11.90;91.80;;;;;;5053421;28;20473;-77
2023/10/23 10:26:26;;;;;;;;;;;12.10;91.40;;;;;;5043164;28;19920;-76
2023/10/23 10:28:52;;;;;;;;;;;12.00;90.90;;;;;;5055519;28;19921;-79
2023/10/23 10:31:18;;;;;;;;;;;12.30;91.10;;;;;;5052071;28;20362;-78
2023/10/23 10:33:43;;;;;;;;;;;12.40;90.00;;;;;;5054778;28;19920;-76
2023/10/23 10:36:10;;;;;;;;;;;12.40;90.10;;;;;;5054948;28;19924;-76
2023/10/23 10:38:36;;;;;;;;;;;12.30;90.50;;;;;;5052191;28;19912;-77
2023/10/23 10:41:03;;;;;;;;;;;12.40;90.50;;;;;;5060301;28;19990;-77
2023/10/23 10:43:39;;;;;;;;;;;12.40;90.30;;;;;;5052163;28;19912;-77
2023/10/23 10:46:15;;;;;;;;;;;12.30;90.50;;;;;;5054755;28;19956;-77
2023/10/23 10:48:42;;;;;;;;;;;12.30;90.50;;;;;;5053758;28;19913;-77
2023/10/23 10:51:07;;;;;;;;;;;12.30;90.60;;;;;;5048558;28;19917;-77
2023/10/23 10:53:34;;;;;;;;;;;12.20;90.60;;;;;;5057620;28;19912;-75
2023/10/23 10:55:59;;;;;;;;;;;12.20;90.80;;;;;;5051043;28;19924;-76
2023/10/23 10:58:25;;;;;;;;;;;12.30;90.90;;;;;;5055536;28;20413;-77
2023/10/23 11:00:51;;;;;;;;;;;12.20;91.10;;;;;;5053336;28;19916;-76
2023/10/23 11:03:17;;;;;;;;;;;12.00;91.50;;;;;;5050081;28;19943;-79
2023/10/23 11:05:46;;;;;;;;;;;11.80;91.40;;;;;;5051694;28;19952;-80
2023/10/23 11:08:12;;;;;;;;;;;12.00;91.30;;;;;;5052512;28;19924;-79
2023/10/23 11:10:38;;;;;;;;;;;11.90;91.60;;;;;;5053623;28;19951;-80
2023/10/23 11:13:03;;;;;;;;;;;11.90;91.20;;;;;;5049661;28;19952;-81
2023/10/23 11:15:29;;;;;;;;;;;11.90;91.30;;;;;;5053573;28;20425;-79
2023/10/23 11:17:55;;;;;;;;;;;11.80;91.70;;;;;;5056569;28;19948;-83
2023/10/23 11:20:20;;;;;;;;;;;11.80;91.40;;;;;;5050709;28;20286;-77
2023/10/23 11:22:49;;;;;;;;;;;11.70;91.30;;;;;;5055690;28;19917;-75
2023/10/23 11:25:15;;;;;;;;;;;12.00;91.30;;;;;;5047894;28;19915;-75
2023/10/23 11:27:41;;;;;;;;;;;11.80;91.50;;;;;;5051371;28;19967;-75
2023/10/23 11:30:07;;;;;;;;;;;12.10;90.90;;;;;;5056328;28;19916;-76
2023/10/23 11:32:33;;;;;;;;;;;12.30;90.30;;;;;;5047954;28;19916;-77
2023/10/23 11:35:00;;;;;;;;;;;12.40;90.30;;;;;;5056779;28;19995;-78
2023/10/23 11:37:25;;;;;;;;;;;12.60;90.70;;;;;;5052617;28;19912;-77
2023/10/23 11:39:51;;;;;;;;;;;12.90;89.90;;;;;;5045801;28;19926;-77
2023/10/23 11:42:17;;;;;;;;;;;13.30;88.80;;;;;;5052597;28;19952;-77
2023/10/23 11:44:42;;;;;;;;;;;13.20;86.80;;;;;;5052810;28;19927;-77
2023/10/23 11:47:08;;;;;;;;;;;13.40;86.70;;;;;;5045769;28;19923;-77
2023/10/23 11:49:34;;;;;;;;;;;13.60;88.20;;;;;;5050366;28;19931;-76
2023/10/23 11:52:00;;;;;;;;;;;14.10;85.10;;;;;;5049302;28;20371;-76
2023/10/23 11:54:26;;;;;;;;;;;14.20;83.70;;;;;;5050421;28;20007;-76
2023/10/23 11:56:55;;;;;;;;;;;13.90;84.00;;;;;;5057355;28;19917;-76
2023/10/23 11:59:21;;;;;;;;;;;14.00;84.10;;;;;;5049335;28;19924;-77
2023/10/23 12:01:47;;;;;;;;;;;13.60;85.20;;;;;;5048758;28;19999;-76
2023/10/23 12:04:13;;;;;;;;;;;13.30;87.30;;;;;;5054643;28;20005;-77
2023/10/23 12:06:39;;;;;;;;;;;12.60;89.10;;;;;;5054178;28;19919;-77
2023/10/23 12:09:05;;;;;;;;;;;12.80;90.00;;;;;;5052491;28;19914;-78
2023/10/23 12:11:36;;;;;;;;;;;12.50;90.30;;;;;;5046513;28;19913;-77
2023/10/23 12:14:02;;;;;;;;;;;12.90;89.70;;;;;;5053399;28;19921;-78
2023/10/23 12:16:28;;;;;;;;;;;13.20;88.70;;;;;;5053446;28;19932;-77
2023/10/23 12:18:54;;;;;;;;;;;13.20;89.80;;;;;;5050504;28;20366;-77
2023/10/23 12:21:20;;;;;;;;;;;13.00;88.20;;;;;;5053493;28;19966;-73
2023/10/23 12:23:46;;;;;;;;;;;13.00;89.20;;;;;;5049855;28;19933;-73
2023/10/23 12:26:11;;;;;;;;;;;12.90;89.20;;;;;;5046287;28;19920;-72
2023/10/23 12:28:37;;;;;;;;;;;12.40;90.60;;;;;;5053511;28;20387;-73
2023/10/23 12:31:04;;;;;;;;;;;12.30;91.10;;;;;;5047679;28;19912;-72
2023/10/23 12:33:30;;;;;;;;;;;12.10;91.50;;;;;;5054207;28;19916;-73
2023/10/23 12:35:55;;;;;;;;;;;12.20;91.40;;;;;;5072812;28;20815;-72
2023/10/23 12:38:21;;;;;;;;;;;12.20;91.80;;;;;;5049362;28;19928;-73
2023/10/23 12:40:48;;;;;;;;;;;12.20;91.70;;;;;;5054434;28;19952;-73
2023/10/23 12:43:14;;;;;;;;;;;12.30;91.80;;;;;;5055589;28;19983;-73
2023/10/23 12:45:41;;;;;;;;;;;12.50;91.20;;;;;;5050991;28;20563;-73
2023/10/23 12:48:06;;;;;;;;;;;12.60;91.10;;;;;;5046928;28;19969;-73
2023/10/23 12:50:32;;;;;;;;;;;12.90;90.40;;;;;;5054245;28;20318;-73
2023/10/23 12:52:58;;;;;;;;;;;13.50;88.60;;;;;;5054688;28;20050;-73
2023/10/23 12:55:23;;;;;;;;;;;14.10;87.50;;;;;;5053074;28;20366;-73
2023/10/23 12:57:49;;;;;;;;;;;14.20;86.10;;;;;;5051556;28;19908;-73
2023/10/23 13:00:15;;;;;;;;;;;14.30;85.20;;;;;;5050400;28;20406;-74
2023/10/23 13:02:41;;;;;;;;;;;14.40;84.10;;;;;;5047327;28;19918;-73
2023/10/23 13:05:07;;;;;;;;;;;13.90;86.70;;;;;;5055152;28;20366;-74
2023/10/23 13:07:35;;;;;;;;;;;13.70;86.20;;;;;;5049500;28;19966;-75
2023/10/23 13:10:01;;;;;;;;;;;13.50;85.90;;;;;;5047584;28;19916;-74
2023/10/23 13:12:27;;;;;;;;;;;13.70;86.70;;;;;;5048650;28;19924;-75
2023/10/23 13:14:53;;;;;;;;;;;13.90;86.80;;;;;;5053178;28;19916;-75
2023/10/23 13:17:18;;;;;;;;;;;14.10;86.00;;;;;;5052295;28;19912;-73
2023/10/23 13:19:44;;;;;;;;;;;13.90;87.00;;;;;;5048368;28;20298;-76
2023/10/23 13:22:14;;;;;;;;;;;13.80;86.60;;;;;;5054495;28;19965;-74
2023/10/23 13:24:40;;;;;;;;;;;14.20;86.10;;;;;;5051260;28;19917;-76
2023/10/23 13:27:05;;;;;;;;;;;14.10;86.40;;;;;;5076274;28;20330;-75
2023/10/23 13:29:32;;;;;;;;;;;14.20;85.30;;;;;;5045814;28;19927;-74
2023/10/23 13:31:58;;;;;;;;;;;13.90;86.20;;;;;;5076294;28;20546;-77
2023/10/23 13:34:24;;;;;;;;;;;13.90;86.30;;;;;;5050848;28;20290;-80
2023/10/23 13:36:49;;;;;;;;;;;13.90;86.80;;;;;;5048200;28;19919;-79
2023/10/23 13:39:15;;;;;;;;;;;13.70;88.00;;;;;;5046392;28;19921;-76
2023/10/23 13:41:40;;;;;;;;;;;13.50;89.00;;;;;;5050486;28;20669;-76
2023/10/23 13:44:06;;;;;;;;;;;13.60;88.80;;;;;;5052741;28;20359;-77
2023/10/23 13:46:32;;;;;;;;;;;13.40;89.50;;;;;;5051009;28;20032;-77
2023/10/23 13:48:58;;;;;;;;;;;13.30;90.00;;;;;;5047710;28;20260;-77
2023/10/23 13:51:24;;;;;;;;;;;13.20;90.30;;;;;;5055582;28;19954;-75
2023/10/23 13:53:50;;;;;;;;;;;13.20;90.70;;;;;;5056455;28;19959;-75
2023/10/23 13:56:15;;;;;;;;;;;13.40;90.50;;;;;;5051619;28;20392;-75
2023/10/23 13:58:41;;;;;;;;;;;13.30;90.80;;;;;;5052052;28;19963;-81
2023/10/23 14:01:07;;;;;;;;;;;13.30;90.60;;;;;;5052851;28;19971;-76
2023/10/23 14:03:33;;;;;;;;;;;13.30;91.10;;;;;;5051776;28;19912;-76
2023/10/23 14:05:58;;;;;;;;;;;13.20;91.20;;;;;;5052460;28;19920;-75
2023/10/23 14:08:24;;;;;;;;;;;13.10;91.10;;;;;;5053527;28;19928;-75
2023/10/23 14:10:52;;;;;;;;;;;13.00;91.20;;;;;;5055029;28;19966;-74
2023/10/23 14:13:18;;;;;;;;;;;13.00;91.70;;;;;;5055557;28;20358;-76
2023/10/23 14:15:44;;;;;;;;;;;13.10;91.30;;;;;;5053469;28;20328;-76
2023/10/23 14:18:09;;;;;;;;;;;13.40;90.70;;;;;;5055533;28;19916;-79
2023/10/23 14:20:35;;;;;;;;;;;13.40;90.90;;;;;;5054176;28;20031;-76